Sonic Adventure (DX): Time Rankings

Records: Times | Rings | Scores | Races | Bosses | Freestyle
Leaders: Times | Rings | Scores | Races | Bosses | Freestyle | Overall
Rank Player Percent Points Date
1 Gamepro011 99.6% 19 01-14-17
2 Sonicspeedruner 98.8% 63 01-14-17
3 Dashjump 95.3% 254 01-14-17
4 Jawzun 95.3% 257 01-14-17
5 DarkPolarNight 93.1% 378 01-14-17
6 drminus 92.3% 423 01-14-17
7 F-Man 92.1% 431 01-14-17
8 THC98 91.8% 449 01-14-17
9 ike6252 89.7% 566 01-14-17
10 Avento128bits 89.3% 586 01-14-17
11 francisco 89.0% 600 01-14-17
12 DarkspinesSonic 88.5% 632 01-14-17
13 Marth 88.3% 643 01-14-17
14 ethmar 88.2% 648 01-14-17
15 frankoredstrato 87.1% 704 01-14-17
16 chainchumper 84.3% 862 01-14-17
17 Paragod 84.1% 869 01-14-17
18 HyperSonic7701 83.9% 884 01-14-17
19 TheRealShadnic 82.2% 976 01-14-17
20 xXMegaManXx 80.9% 1049 01-14-17
21 InferSaime 80.8% 1054 01-14-17
22 Stefan 79.2% 1139 01-14-17
23 Redd 78.8% 1162 01-14-17
24 Coolfansonic 78.7% 1166 01-14-17
25 PfoSonic 78.7% 1167 01-14-17
26 bertin 76.8% 1271 01-14-17
27 yoshifan 76.4% 1296 01-14-17
28 Dave Cramer 74.7% 1387 01-14-17
29 RPGnutter 74.3% 1409 01-14-17
30 sonicam 72.7% 1496 01-14-17
31 Cybrax 72.7% 1500 01-14-17
32 Ring Rush 69.9% 1652 01-14-17
33 mike89 69.1% 1695 01-14-17
34 NintenDan 68.9% 1704 01-14-17
35 a_moustache 68.1% 1749 01-14-17
36 SkyLights 65.4% 1901 01-14-17
37 Nimrod 64.4% 1955 01-14-17
38 Combo 64.0% 1978 01-14-17
39 SADXTryHard 62.2% 2075 01-14-17
40 P1 Pause 61.0% 2139 01-14-17
41 Groudon199 59.2% 2238 01-14-17
42 Game_Complete 59.1% 2246 01-14-17
43 AxlThunder 58.7% 2269 01-14-17
44 Shadow Jacky 58.6% 2275 01-14-17
45 VMU Player Banned 57.6% 2330 01-14-17
46 Thorn 57.3% 2345 01-14-17
47 SB737 56.3% 2401 01-14-17
47 The Knuckles Chao 56.3% 2401 01-14-17
49 SadisticMystic 55.8% 2424 01-14-17
50 Chao_Fan 55.7% 2430 01-14-17
51 Parax 55.6% 2438 01-14-17
52 Mastakirby 55.3% 2452 01-14-17
53 KinkyCadence 54.9% 2474 01-14-17
54 LittleBigness 54.9% 2475 01-14-17
55 mauserman 54.8% 2481 01-14-17
56 OmegaDJ 54.7% 2487 01-14-17
57 Psyknux 54.3% 2511 01-14-17
58 Auriman1 54.1% 2520 01-14-17
59 magnum12 53.9% 2531 01-14-17
60 Turbos 53.6% 2547 01-14-17
61 GerbilSoft 53.1% 2575 01-14-17
62 GreatStar 52.8% 2591 01-14-17
63 Webber3000 52.4% 2614 01-14-17
64 Hipertails12 51.4% 2671 01-14-17
65 James_Bertolli 49.2% 2787 01-14-17
66 Cream147 48.9% 2808 01-14-17
67 welldooder64 48.1% 2847 01-14-17
68 Skylace 48.0% 2853 01-14-17
69 Quartz 47.7% 2872 01-14-17
70 Omega Rafael Santos 47.5% 2882 01-14-17
71 Psymar 47.5% 2883 01-14-17
72 Diamond 47.3% 2893 01-14-17
73 SonicWinDX 47.0% 2911 01-14-17
74 teamblackarms 46.4% 2942 01-14-17
75 Andrea Ritsu 45.8% 2978 01-14-17
76 buddychaos0415 45.5% 2992 01-14-17
77 SilverSonic 44.7% 3035 01-14-17
78 SilvertheAlmighty 44.3% 3058 01-14-17
79 WeegeeZV 43.9% 3078 01-14-17
80 itsPersonnal 43.9% 3079 01-14-17
81 metanightmare22 43.6% 3099 01-14-17
82 lordmetalsonic 41.5% 3215 01-14-17
83 Arch 41.0% 3241 01-14-17
84 videogamemaster777 40.1% 3289 01-14-17
85 Termon 40.1% 3292 01-14-17
86 supersonicfan 39.8% 3308 01-14-17
87 Drakodan 39.2% 3338 01-14-17
88 Kanimayo_Jp 38.9% 3355 01-14-17
89 LilZero 38.9% 3356 01-14-17
90 paulie9990 38.7% 3368 01-14-17
91 FuzZerd 38.6% 3373 01-14-17
92 supersonic465 38.5% 3377 01-14-17
93 eggFL 38.0% 3407 01-14-17
94 Don 37.2% 3448 01-14-17
95 danieldude 37.0% 3458 01-14-17
96 Siavash Tazari 36.4% 3493 01-14-17
97 Fr3nZy 35.8% 3525 01-14-17
98 f0rever_zer0 35.4% 3545 01-14-17
99 Cod4Scopes 35.3% 3554 01-14-17
100 Cyan Ryan 34.9% 3576 01-14-17
101 LinksDarkArrows 34.5% 3597 01-14-17
102 Therio 34.3% 3610 01-14-17
103 Austinf 33.9% 3630 01-14-17
104 elecmouse101 33.5% 3652 01-14-17
105 Staf 33.3% 3662 01-14-17
106 MiStEr_ShAoLiN 33.0% 3681 01-14-17
107 Twilisailor 32.6% 3702 01-14-17
108 BrokenArthritis 32.4% 3715 01-14-17
109 videogamer1014 32.2% 3721 01-14-17
110 Xia 31.7% 3751 01-14-17
111 AC-Tygo 31.6% 3758 01-14-17
112 welshmoose05 31.3% 3771 01-14-17
113 OddCook 30.7% 3804 01-14-17
114 The Great Lord Mick 30.4% 3821 01-14-17
115 Mcshuggets 29.8% 3855 01-14-17
116 Aitamen 29.8% 3856 01-14-17
117 Maxinfamily 29.6% 3865 01-14-17
118 Matt_TY 29.6% 3866 01-14-17
119 dabestgamer 29.4% 3879 01-14-17
120 joecoolgames 29.3% 3882 01-14-17
121 SuperBlitzCraig 29.0% 3902 01-14-17
122 N 28.9% 3903 01-14-17
123 imazor017 28.7% 3917 01-14-17
124 Shadowthegreat 28.0% 3957 01-14-17
125 superjupi 27.9% 3962 01-14-17
126 SuperSonic101 27.8% 3967 01-14-17
127 Rolken 27.5% 3984 01-14-17
128 thewaytodawnnn 27.1% 4004 01-14-17
129 Hunters13 27.0% 4010 01-14-17
130 sonamyfan666 26.9% 4015 01-14-17
131 iarebored 26.6% 4033 01-14-17
131 koinu93 26.6% 4033 01-14-17
133 Spinballwizard 26.5% 4036 01-14-17
134 SonicKnuckles 26.4% 4041 01-14-17
135 SaviourDC 26.3% 4046 01-14-17
136 EngiNerd 25.5% 4090 01-14-17
137 adf 25.4% 4099 01-14-17
138 Megaman EXE565 24.7% 4134 01-14-17
139 The T 24.3% 4157 01-14-17
140 Sonic Singularity 23.7% 4188 01-14-17
141 Platformer 23.3% 4210 01-14-17
142 Pokemonmaster888 23.3% 4215 01-14-17
143 SeaWolf 23.2% 4218 01-14-17
144 timpkmn89 23.1% 4224 01-14-17
145 Swift Hobo 22.6% 4252 01-14-17
146 Sondow 22.3% 4269 01-14-17
147 Rickyman48 22.0% 4285 01-14-17
148 KitsuneYamaro 21.7% 4299 01-14-17
149 FoxBoy 21.5% 4310 01-14-17
150 TFEC Headshot 21.0% 4340 01-14-17
151 Jerzia 20.8% 4349 01-14-17
152 Kogen Player Banned 20.8% 4351 01-14-17
153 SonataSpinDash 20.5% 4365 01-14-17
154 Starlight Sable 20.0% 4393 01-14-17
155 HyperSonic64 19.5% 4419 01-14-17
156 IsisDazs 19.5% 4421 01-14-17
157 Powerjohn25 19.4% 4429 01-14-17
158 crazy1993 19.1% 4444 01-14-17
159 andres430 19.0% 4450 01-14-17
160 SonicU260 18.0% 4503 01-14-17
161 MPit08 17.6% 4524 01-14-17
162 SonicAD 17.6% 4526 01-14-17
163 sonicd5 17.2% 4550 01-14-17
164 iSonicKid2K 16.9% 4562 01-14-17
165 dShadow 16.9% 4566 01-14-17
166 Cutiefox 16.3% 4599 01-14-17
167 BigAL49 16.2% 4605 01-14-17
168 Chawkk 16.1% 4608 01-14-17
169 Miles9999 16.0% 4612 01-14-17
170 Monkeh 15.9% 4617 01-14-17
171 DaDude 15.4% 4646 01-14-17
172 Drflash55 15.2% 4658 01-14-17
173 Badlex727 14.9% 4673 01-14-17
173 Bass 14.9% 4673 01-14-17
175 Cruizer 14.6% 4690 01-14-17
176 Destroyer121121 14.6% 4693 01-14-17
177 neaolas 14.5% 4698 01-14-17
178 Yish 14.4% 4700 01-14-17
179 zapp 14.3% 4705 01-14-17
180 UninspiredUsername 14.2% 4713 01-14-17
181 superiorsonic 14.2% 4714 01-14-17
182 gamefreak1292 13.9% 4732 01-14-17
183 Cooljay 13.5% 4751 01-14-17
184 Chaos_Overlord 13.0% 4781 01-14-17
185 GarnetPrincess 12.4% 4813 01-14-17
185 Valfore 12.4% 4813 01-14-17
187 soniccoloursunleashed 12.0% 4835 01-14-17
188 ShinigamiMachine 11.8% 4845 01-14-17
189 Sonicsuperstar1 11.4% 4867 01-14-17
190 booo95 11.1% 4882 01-14-17
191 SirTobbii 11.0% 4891 01-14-17
192 FocusSight64 10.9% 4894 01-14-17
192 Werey 10.9% 4894 01-14-17
194 Mo Player Banned 10.7% 4903 01-14-17
195 sonicspeed 10.6% 4910 01-14-17
196 Venick409 9.6% 4963 01-14-17
197 nman36 9.6% 4965 01-14-17
197 Sithwarrior26 9.6% 4965 01-14-17
199 ingx24 9.1% 4991 01-14-17
200 CyberShadow 9.0% 4996 01-14-17
201 dekki1234 8.9% 5003 01-14-17
202 Fozer 8.8% 5012 01-14-17
203 Colomb_30 8.6% 5020 01-14-17
204 Egor305 8.5% 5028 01-14-17
205 Regano1000 8.4% 5033 01-14-17
206 1stKirbyever 8.1% 5048 01-14-17
207 TimTH 7.9% 5058 01-14-17
208 nuckrieg 7.9% 5059 01-14-17
209 Brian_pso 7.7% 5068 01-14-17
210 douglas 7.7% 5069 01-14-17
211 Zip 7.5% 5081 01-14-17
212 Th4tN1nj4Turtl3 7.4% 5085 01-14-17
213 TakaRikka 7.4% 5087 01-14-17
214 wheatrich 7.1% 5101 01-14-17
215 Mariosonic15 7.1% 5104 01-14-17
216 niscool 6.7% 5123 01-14-17
217 ieatatsonic 6.7% 5124 01-14-17
218 MStitomix 6.7% 5127 01-14-17
219 HermitHelmet 6.6% 5128 01-14-17
220 Got4n 6.4% 5144 01-14-17
221 Triseena 6.3% 5146 01-14-17
222 Cort_pso 6.3% 5148 01-14-17
223 Jose_15 6.0% 5162 01-14-17
224 Artie 6.0% 5165 01-14-17
225 BlankTH 5.9% 5168 01-14-17
226 SuperSonicfan9595 5.8% 5173 01-14-17
227 Ace747 5.6% 5186 01-14-17
228 Richied 5.5% 5190 01-14-17
229 HHNNBBHHN 5.4% 5194 01-14-17
230 Paixii 5.2% 5205 01-14-17
231 Aiko 5.2% 5206 01-14-17
232 slade23 5.0% 5217 01-14-17
233 BallzeH 5.0% 5220 01-14-17
234 Mankster101 4.9% 5225 01-14-17
235 ArcticDragon 4.9% 5226 01-14-17
236 FSSRandomvids 4.8% 5227 01-14-17
237 BecauseWarAnvil 4.8% 5228 01-14-17
238 PsyBorg 4.8% 5229 01-14-17
239 Jamixesa 4.8% 5231 01-14-17
240 Nickson98 4.7% 5235 01-14-17
241 Crydio 4.6% 5240 01-14-17
242 TheUltraBlur 4.4% 5249 01-14-17
243 ReuelBrony 4.4% 5253 01-14-17
244 MarewBFN 4.3% 5258 01-14-17
245 stanski 4.2% 5261 01-14-17
245 tal39h 4.2% 5261 01-14-17
247 ALundstrom10 4.0% 5272 01-14-17
248 p0ker 4.0% 5275 01-14-17
249 knuckles_sonic8 4.0% 5276 01-14-17
250 Blue Infamy 3.9% 5278 01-14-17
251 chaos shadow 3.9% 5280 01-14-17
252 ErrortheCucco 3.7% 5289 01-14-17
253 Rikum22 3.7% 5292 01-14-17
254 sonic1001 3.5% 5300 01-14-17
255 TheChaosEmeraIds 3.5% 5301 01-14-17
256 AJSIV 3.4% 5306 01-14-17
257 syco1098 3.4% 5307 01-14-17
258 Sonic the Hedgehod16 3.3% 5311 01-14-17
259 Calfd 3.2% 5318 01-14-17
260 sonicfan9 3.2% 5319 01-14-17
261 MK 3.0% 5330 01-14-17
262 themachoman202 3.0% 5331 01-14-17
263 Mr. Jones 2.8% 5341 01-14-17
264 Fivavoa 2.8% 5342 01-14-17
265 BlackArmsShadow 2.7% 5343 01-14-17
265 djmat 2.7% 5343 01-14-17
267 arcfx1985 2.7% 5344 01-14-17
268 ptorflaxendrosis 2.7% 5347 01-14-17
269 Sonique Hedgehog 2.6% 5348 01-14-17
270 FlandreScarlet9999vr 2.6% 5352 01-14-17
271 Zeldocto 2.5% 5354 01-14-17
272 BeeAwwb 2.4% 5359 01-14-17
273 KaM Mark MaK 2.4% 5360 01-14-17
274 ShadouZaHejjihoggu 2.3% 5367 01-14-17
275 darkstarblaze 2.3% 5369 01-14-17
276 Sonic The Star 2.2% 5373 01-14-17
277 darkersupershadic 2.2% 5374 01-14-17
278 SpiritDragon1995 2.2% 5375 01-14-17
279 Sarger001 2.1% 5376 01-14-17
280 Grady219 2.0% 5381 01-14-17
280 sonic29887 2.0% 5381 01-14-17
282 shadowblast63 Player Banned 2.0% 5385 01-14-17
283 Jawaah 1.9% 5387 01-14-17
284 Antek 1.9% 5390 01-14-17
285 Klaus 1.8% 5392 01-14-17
286 BioShadow 1.8% 5394 01-14-17
287 SkyBon 1.5% 5413 01-14-17
288 Shanekilz 1.4% 5414 01-14-17
289 isaihtb11 1.4% 5418 01-14-17
290 OhNoes! 1.3% 5420 01-14-17
290 zaktu40 1.3% 5420 01-14-17
292 gaara1234 1.3% 5423 01-14-17
293 S-MS32X-S 1.2% 5425 01-14-17
294 MastaToken 1.2% 5430 01-14-17
295 Mister_Slick 1.1% 5435 01-14-17
296 Sonic06Fan 1.0% 5437 01-14-17
297 Rush Hero 1.0% 5439 01-14-17
298 SonicMega167 0.9% 5444 01-14-17
299 oTaiIilLsS 0.9% 5446 01-14-17
300 gamed00d 0.8% 5447 01-14-17
300 SilverK 0.8% 5447 01-14-17
302 Burningskull123 0.6% 5463 01-14-17
303 Heroes_Hater 0.5% 5466 01-14-17
304 Sonicontherun 0.4% 5474 01-14-17
305 antiwwe 0.2% 5480 01-14-17
306 Iwannabelink 0.2% 5483 01-14-17
307 Genuine Hedgehog 0.2% 5484 01-14-17
308 dragondragon18 0.1% 5489 01-14-17
309 SonicK100 0.1% 5490 01-14-17
310 Tyrouble 0.0% 5495 01-14-17
311 LancexExWx 0.0% 5496 01-14-17
311 neji_hyuuga 0.0% 5496 01-14-17
311 Over 0.0% 5496 01-14-17
311 sdj6707 Player Banned 0.0% 5496 01-14-17
311 Tran Sonic Fan Player Banned 0.0% 5496 01-14-17

This page is using the New Data Table System. [FUTURE]

Game ID: 3 | Category ID: 1
Hits: 8,397 | Hits This Month: 11 | DB Calls: 24 | Mem Usage: 5.46 MB | Time: 0.20s | Printable

The Sonic Center v3.9
Copyright 2003-2011 by The Sonic Center Team.